Time;durP1;ratioP1;P1;durP2;ratioP2;P2;SDS_P1;SDS_P2;PMS_P1;PMS_P2;Temp;Humidity;BMP_temperature;BMP_pressure;BME280_temperature;BME280_humidity;BME280_pressure;Samples;Min_cycle;Max_cycle;Signal;HPM_P1;HPM_P2
2023/12/14 00:00:16;;;;;;;6.93;2.00;;;;;;;18.70;100.00;101241.75;10562829;27;20071;-78
2023/12/14 00:05:38;;;;;;;21.83;2.70;;;;;;;18.71;100.00;101240.84;10593045;27;20112;-78
2023/12/14 00:11:05;;;;;;;10.82;2.33;;;;;;;18.69;100.00;101229.28;10570870;27;20073;-78
2023/12/14 00:16:28;;;;;;;11.98;2.95;;;;;;;18.58;100.00;101224.03;10573855;27;20095;-80
2023/12/14 00:21:51;;;;;;;12.52;2.38;;;;;;;18.60;100.00;101237.38;10582759;27;20051;-79
2023/12/14 00:27:13;;;;;;;10.68;3.05;;;;;;;18.61;100.00;101244.50;10562484;27;20048;-80
2023/12/14 00:32:37;;;;;;;13.43;3.17;;;;;;;18.54;100.00;101238.31;10561897;28;20044;-79
2023/12/14 00:38:00;;;;;;;12.38;2.63;;;;;;;18.62;100.00;101236.47;10561491;27;20134;-79
2023/12/14 00:43:22;;;;;;;14.38;3.15;;;;;;;18.57;100.00;101234.75;10568415;27;20052;-80
2023/12/14 00:48:48;;;;;;;13.65;2.58;;;;;;;18.55;100.00;101244.53;10581883;27;20043;-79
2023/12/14 00:54:10;;;;;;;14.23;2.97;;;;;;;18.58;100.00;101255.22;10585603;28;20051;-79
2023/12/14 00:59:33;;;;;;;19.17;3.00;;;;;;;18.56;100.00;101244.56;10580159;28;20493;-79
2023/12/14 01:04:57;;;;;;;10.65;3.08;;;;;;;18.59;100.00;101236.50;10571491;28;20043;-79
2023/12/14 01:10:19;;;;;;;10.68;2.78;;;;;;;18.62;100.00;101224.91;10565356;28;20048;-79
2023/12/14 01:15:42;;;;;;;10.27;1.90;;;;;;;18.64;100.00;101223.09;10601805;27;20043;-79
2023/12/14 01:21:07;;;;;;;12.77;2.95;;;;;;;18.66;100.00;101222.16;10548944;28;20047;-80
2023/12/14 01:26:31;;;;;;;11.93;2.97;;;;;;;18.65;100.00;101219.50;10579518;28;20107;-79
2023/12/14 01:31:54;;;;;;;13.40;2.42;;;;;;;18.58;100.00;101228.47;10579321;28;20079;-79
2023/12/14 01:37:19;;;;;;;17.33;3.30;;;;;;;18.68;100.00;101214.13;10552747;28;20051;-82
2023/12/14 01:42:41;;;;;;;12.63;3.10;;;;;;;18.70;100.00;101210.56;10579878;28;20148;-80
2023/12/14 01:48:05;;;;;;;18.40;3.30;;;;;;;18.59;100.00;101219.56;10592282;28;20043;-81
2023/12/14 01:53:30;;;;;;;10.43;2.60;;;;;;;18.61;100.00;101218.66;10561825;28;20062;-80
2023/12/14 01:58:54;;;;;;;10.80;2.63;;;;;;;18.67;100.00;101215.91;10572975;27;20055;-80
2023/12/14 02:04:16;;;;;;;18.95;4.03;;;;;;;18.74;100.00;101223.88;10573935;27;20128;-80
2023/12/14 02:09:40;;;;;;;13.48;2.50;;;;;;;18.81;100.00;101226.47;10580015;27;20554;-82
2023/12/14 02:15:03;;;;;;;9.68;2.25;;;;;;;18.80;100.00;101237.19;10582553;27;20056;-79
2023/12/14 02:20:25;;;;;;;9.85;2.45;;;;;;;18.84;100.00;101220.22;10553330;27;20039;-79
2023/12/14 02:25:49;;;;;;;15.25;2.58;;;;;;;18.88;100.00;101216.59;10576051;27;20093;-80
2023/12/14 02:31:12;;;;;;;12.80;3.08;;;;;;;18.84;100.00;101220.22;10576628;27;20105;-79
2023/12/14 02:36:34;;;;;;;10.95;2.67;;;;;;;18.79;100.00;101236.28;10589408;27;20039;-80
2023/12/14 02:41:58;;;;;;;17.42;2.40;;;;;;;18.86;100.00;101237.13;10577164;27;20525;-79
2023/12/14 02:47:20;;;;;;;14.32;3.20;;;;;;;18.86;100.00;101242.47;10593718;27;20051;-79
2023/12/14 02:52:43;;;;;;;13.57;2.40;;;;;;;18.90;100.00;101246.91;10570960;27;20077;-79
2023/12/14 02:58:07;;;;;;;20.50;3.13;;;;;;;18.75;100.00;101247.94;10596629;27;20039;-79
2023/12/14 03:03:29;;;;;;;9.93;2.53;;;;;;;18.76;100.00;101257.75;10578939;27;20055;-79
2023/12/14 03:08:52;;;;;;;11.63;2.80;;;;;;;18.75;100.00;101257.75;10582610;27;20054;-80
2023/12/14 03:14:16;;;;;;;17.23;3.95;;;;;;;18.60;100.00;101269.47;10560068;27;20047;-80
2023/12/14 03:19:38;;;;;;;16.00;2.85;;;;;;;18.54;100.00;101293.56;10589120;27;20092;-79
2023/12/14 03:25:01;;;;;;;18.10;2.70;;;;;;;18.54;100.00;101297.13;10588064;27;20039;-78
2023/12/14 03:30:26;;;;;;;16.40;2.83;;;;;;;18.40;100.00;101299.03;10550454;27;20493;-79
2023/12/14 03:35:49;;;;;;;13.40;2.72;;;;;;;18.26;100.00;101295.56;10557069;27;20142;-78
2023/12/14 03:41:11;;;;;;;19.08;3.13;;;;;;;18.26;100.00;101301.81;10582798;27;20043;-78
2023/12/14 03:46:35;;;;;;;13.57;2.22;;;;;;;18.27;100.00;101303.59;10583852;27;20054;-77
2023/12/14 03:51:57;;;;;;;8.40;2.60;;;;;;;18.35;100.00;101305.31;10577831;27;20076;-78
2023/12/14 03:57:20;;;;;;;17.00;2.80;;;;;;;18.18;100.00;101297.44;10565265;27;20063;-78
2023/12/14 04:02:44;;;;;;;16.55;2.53;;;;;;;18.07;100.00;101324.19;10581951;27;20066;-79
2023/12/14 04:08:06;;;;;;;14.90;2.75;;;;;;;18.18;100.00;101325.00;10573179;27;20050;-81
2023/12/14 04:13:29;;;;;;;15.38;2.72;;;;;;;18.21;100.00;101318.78;10603571;27;20058;-80
2023/12/14 04:18:53;;;;;;;15.05;3.47;;;;;;;18.20;100.00;101330.34;10582868;27;20096;-80
2023/12/14 04:24:15;;;;;;;17.27;2.92;;;;;;;18.08;100.00;101325.97;10572517;27;20039;-79
2023/12/14 04:29:38;;;;;;;14.65;2.50;;;;;;;17.99;100.00;101326.03;10565774;27;20047;-80
2023/12/14 04:35:02;;;;;;;15.07;2.45;;;;;;;18.14;100.00;101323.28;10575711;27;20051;-80
2023/12/14 04:40:24;;;;;;;16.92;3.67;;;;;;;18.16;100.00;101337.53;10585250;27;20051;-81
2023/12/14 04:45:47;;;;;;;14.57;3.50;;;;;;;18.36;100.00;101325.81;10567993;27;20039;-78
2023/12/14 04:51:14;;;;;;;16.73;3.25;;;;;;;18.41;100.00;101338.22;10584012;27;20498;-79
2023/12/14 04:56:36;;;;;;;10.07;3.03;;;;;;;18.43;100.00;101340.91;10555159;28;20146;-79
2023/12/14 05:01:59;;;;;;;15.15;2.40;;;;;;;18.49;100.00;101340.84;10580032;28;20047;-79
2023/12/14 05:07:23;;;;;;;13.07;3.05;;;;;;;18.57;100.00;101339.94;10573422;28;20464;-79
2023/12/14 05:12:46;;;;;;;13.77;2.88;;;;;;;18.54;100.00;101334.56;10562861;28;20097;-79
2023/12/14 05:18:08;;;;;;;17.38;2.88;;;;;;;18.49;100.00;101343.53;10565784;28;20042;-80
2023/12/14 05:23:34;;;;;;;13.90;3.10;;;;;;;18.70;100.00;101343.41;10577011;28;20043;-79
2023/12/14 05:28:56;;;;;;;15.27;3.15;;;;;;;18.70;100.00;101340.72;10614124;27;20039;-79
2023/12/14 05:34:19;;;;;;;7.80;2.33;;;;;;;18.80;100.00;101337.06;10635603;27;20110;-79
2023/12/14 05:39:45;;;;;;;17.35;3.45;;;;;;;18.86;100.00;101322.72;10615816;27;20121;-80
2023/12/14 05:45:10;;;;;;;17.50;2.77;;;;;;;18.88;100.00;101334.31;10582271;28;20446;-79
2023/12/14 05:50:35;;;;;;;9.30;2.72;;;;;;;18.89;100.00;101339.66;10559990;27;20051;-79
2023/12/14 05:56:00;;;;;;;9.80;3.08;;;;;;;18.95;100.00;101334.25;10594667;27;20396;-81
2023/12/14 06:01:22;;;;;;;12.65;2.78;;;;;;;19.05;100.00;101335.91;10601451;27;20039;-79
2023/12/14 06:06:45;;;;;;;16.83;2.85;;;;;;;19.14;100.00;101336.75;10561322;27;20043;-80
2023/12/14 06:12:12;;;;;;;13.88;2.22;;;;;;;19.27;100.00;101338.38;10590836;27;20055;-81
2023/12/14 06:17:38;;;;;;;10.50;2.58;;;;;;;20.54;100.00;101326.00;10606562;27;20055;-79
2023/12/14 06:23:01;;;;;;;12.25;2.38;;;;;;;22.07;100.00;101314.06;10600867;27;20134;-80
2023/12/14 06:28:28;;;;;;;14.63;2.42;;;;;;;22.88;100.00;101318.38;10607942;27;20043;-81
2023/12/14 06:33:50;;;;;;;17.80;2.25;;;;;;;23.03;100.00;101323.38;10602313;27;20123;-80
2023/12/14 06:39:13;;;;;;;15.68;3.50;;;;;;;22.98;100.00;101309.13;10565887;28;20885;-80
2023/12/14 06:44:37;;;;;;;9.43;2.38;;;;;;;23.35;100.00;101310.81;10579918;27;20043;-81
2023/12/14 06:49:59;;;;;;;16.02;2.80;;;;;;;22.31;100.00;101322.50;10606194;27;20051;-80
2023/12/14 06:55:22;;;;;;;9.55;2.58;;;;;;;23.08;100.00;101322.34;10578840;28;20044;-81
2023/12/14 07:00:46;;;;;;;9.82;2.47;;;;;;;23.87;100.00;101329.09;10575723;27;20043;-81
2023/12/14 07:06:14;;;;;;;10.85;2.80;;;;;;;24.88;100.00;101334.81;10604380;27;20051;-81
2023/12/14 07:11:38;;;;;;;11.10;2.70;;;;;;;24.88;100.00;101338.41;10607884;27;20470;-81
2023/12/14 07:17:08;;;;;;;10.68;2.90;;;;;;;24.79;100.00;101352.25;10602762;27;20496;-81
2023/12/14 07:22:34;;;;;;;11.98;2.97;;;;;;;22.10;100.00;101345.41;10606085;27;20066;-81
2023/12/14 07:27:58;;;;;;;11.87;2.13;;;;;;;21.94;100.00;101355.56;10604136;27;20473;-81
2023/12/14 07:33:22;;;;;;;10.23;2.28;;;;;;;22.98;100.00;101359.41;10578602;27;20071;-82
2023/12/14 07:38:44;;;;;;;9.80;2.00;;;;;;;24.88;100.00;101357.31;10590372;27;20112;-82
2023/12/14 07:44:07;;;;;;;12.90;2.70;;;;;;;25.76;99.75;101361.44;10578720;27;20036;-80
2023/12/14 07:49:31;;;;;;;10.18;2.33;;;;;;;25.59;98.50;101378.31;10562898;28;20046;-83
2023/12/14 07:54:53;;;;;;;13.95;2.78;;;;;;;26.23;93.32;101381.25;10570671;27;20047;-84
2023/12/14 08:00:18;;;;;;;12.38;2.72;;;;;;;27.01;83.80;101378.13;10585616;27;20050;-85
2023/12/14 08:05:44;;;;;;;11.55;3.03;;;;;;;25.94;90.24;101355.31;10585976;27;20426;-86
2023/12/14 08:11:07;;;;;;;14.40;2.30;;;;;;;26.68;85.22;101375.84;10605284;27;20043;-83
2023/12/14 08:16:30;;;;;;;9.05;2.25;;;;;;;27.11;75.21;101355.97;10573386;27;20138;-84
2023/12/14 08:21:54;;;;;;;9.02;2.50;;;;;;;26.76;77.09;101345.72;10571519;27;20039;-85
2023/12/14 08:27:20;;;;;;;9.05;2.38;;;;;;;24.59;100.00;101355.59;10584648;27;20627;-82
2023/12/14 08:32:44;;;;;;;10.20;2.95;;;;;;;25.84;92.99;101351.22;10588035;27;20128;-83
2023/12/14 08:38:08;;;;;;;7.13;2.08;;;;;;;25.69;92.79;101368.91;10572261;27;20092;-84
2023/12/14 08:43:31;;;;;;;12.43;2.47;;;;;;;25.59;94.13;101336.84;10560562;27;20169;-85
2023/12/14 08:48:53;;;;;;;9.10;2.63;;;;;;;25.47;94.65;101339.97;10547248;28;20058;-84
2023/12/14 08:54:18;;;;;;;11.57;2.80;;;;;;;24.05;100.00;101352.78;10559954;27;20053;-83
2023/12/14 08:59:40;;;;;;;10.13;2.70;;;;;;;23.97;100.00;101359.34;10584300;28;20100;-84
2023/12/14 09:05:04;;;;;;;9.98;2.90;;;;;;;25.45;98.04;101331.91;10594000;28;20035;-80
2023/12/14 09:10:28;;;;;;;10.60;2.55;;;;;;;23.63;100.00;101317.19;10585826;27;20062;-85
2023/12/14 09:15:53;;;;;;;10.65;3.10;;;;;;;23.80;100.00;101327.50;10587338;27;20051;-84
2023/12/14 09:21:16;;;;;;;8.00;2.17;;;;;;;24.75;100.00;101334.34;10590248;27;20059;-84
2023/12/14 09:26:40;;;;;;;10.77;2.75;;;;;;;25.77;96.22;101330.75;10596529;27;20043;-83
2023/12/14 09:32:02;;;;;;;8.70;2.65;;;;;;;26.02;90.51;101312.59;10585027;27;20049;-85
2023/12/14 09:37:25;;;;;;;10.98;2.10;;;;;;;25.16;100.00;101319.44;10604491;27;20043;-82
2023/12/14 09:42:49;;;;;;;8.77;2.65;;;;;;;24.91;100.00;101303.22;10598374;27;20063;-83
2023/12/14 09:48:13;;;;;;;12.80;2.47;;;;;;;24.24;100.00;101304.56;10583470;27;20142;-84
2023/12/14 09:53:36;;;;;;;6.93;2.15;;;;;;;24.32;100.00;101289.00;10588926;27;20139;-85
2023/12/14 09:59:04;;;;;;;8.68;2.42;;;;;;;25.05;100.00;101282.94;10584896;27;20054;-86
2023/12/14 10:04:26;;;;;;;5.72;1.73;;;;;;;24.51;100.00;101284.75;10599913;27;20110;-77
2023/12/14 10:09:49;;;;;;;8.75;2.40;;;;;;;24.55;100.00;101278.31;10592088;27;20051;-79
2023/12/14 10:15:14;;;;;;;8.43;2.15;;;;;;;24.66;100.00;101279.78;10596028;27;20053;-82
2023/12/14 10:20:38;;;;;;;11.13;2.35;;;;;;;24.02;100.00;101269.28;10593735;27;20046;-88
2023/12/14 10:26:00;;;;;;;6.10;1.60;;;;;;;23.73;100.00;101270.16;10598306;27;20051;-85
2023/12/14 10:31:26;;;;;;;8.30;1.80;;;;;;;23.57;100.00;101262.56;10599519;27;20043;-84
2023/12/14 10:36:49;;;;;;;10.88;2.60;;;;;;;24.01;100.00;101247.72;10595780;27;20043;-90
2023/12/14 10:42:19;;;;;;;6.93;2.10;;;;;;;23.68;100.00;101233.50;10591204;27;20051;-82
2023/12/14 10:47:45;;;;;;;8.27;2.70;;;;;;;24.19;100.00;101220.19;10583208;27;20147;-80
2023/12/14 10:53:08;;;;;;;8.75;2.58;;;;;;;23.77;100.00;101220.59;10602942;27;20624;-80
2023/12/14 10:58:47;;;;;;;9.40;2.47;;;;;;;23.38;100.00;101230.75;10585934;27;20095;-84
2023/12/14 11:04:14;;;;;;;9.55;2.08;;;;;;;23.21;100.00;101237.56;10603812;27;20050;-83
2023/12/14 11:09:37;;;;;;;;;;;;;;;22.98;100.00;101241.78;10579131;27;20215;-83
2023/12/14 11:15:03;;;;;;;16.77;3.38;;;;;;;22.62;100.00;101238.25;10599055;27;20270;-85
2023/12/14 11:20:28;;;;;;;9.88;1.88;;;;;;;22.79;100.00;101221.69;10595596;27;20077;-82
2023/12/14 11:25:54;;;;;;;9.63;2.08;;;;;;;22.86;100.00;101203.53;10584633;27;20386;-84
2023/12/14 11:31:18;;;;;;;9.30;2.38;;;;;;;22.87;100.00;101208.00;10593345;27;20433;-82
2023/12/14 11:36:43;;;;;;;8.57;2.63;;;;;;;22.85;100.00;101205.34;10602490;27;20047;-85
2023/12/14 11:42:10;;;;;;;8.77;1.67;;;;;;;22.83;100.00;101177.59;10589765;27;20500;-85
2023/12/14 11:47:35;;;;;;;6.25;1.60;;;;;;;22.79;100.00;101175.03;10573781;27;20694;-90
2023/12/14 11:53:03;;;;;;;11.30;2.20;;;;;;;22.66;100.00;101155.59;10579648;27;20050;-85
2023/12/14 11:58:26;;;;;;;13.65;2.72;;;;;;;22.64;100.00;101174.50;10581819;27;20135;-85
2023/12/14 12:03:48;;;;;;;12.90;2.03;;;;;;;22.59;100.00;101159.41;10573232;27;20047;-85
2023/12/14 12:09:13;;;;;;;8.15;2.15;;;;;;;22.43;100.00;101158.94;10571367;27;20043;-87
2023/12/14 12:14:36;;;;;;;12.85;2.00;;;;;;;22.18;100.00;101163.22;10588100;27;20130;-86
2023/12/14 12:19:58;;;;;;;8.32;2.55;;;;;;;21.91;100.00;101166.56;10603348;27;20048;-85
2023/12/14 12:25:24;;;;;;;7.65;1.98;;;;;;;21.70;100.00;101159.88;10604187;27;20103;-88
2023/12/14 12:30:47;;;;;;;5.93;1.85;;;;;;;21.64;100.00;101182.41;10586946;27;20076;-86
2023/12/14 12:36:11;;;;;;;13.80;2.90;;;;;;;21.75;100.00;101191.09;10574342;27;20073;-88
2023/12/14 12:41:36;;;;;;;11.57;2.35;;;;;;;21.74;100.00;101199.19;10578006;27;20059;-89
2023/12/14 12:47:02;;;;;;;11.05;2.55;;;;;;;21.62;100.00;101196.78;10566230;27;20047;-86
2023/12/14 12:52:27;;;;;;;9.30;2.60;;;;;;;21.50;100.00;101213.19;10585507;27;20046;-86
2023/12/14 12:57:53;;;;;;;6.72;1.90;;;;;;;21.54;100.00;101221.16;10586848;27;20043;-85
2023/12/14 13:03:18;;;;;;;12.27;2.28;;;;;;;21.59;100.00;101221.06;10566489;28;20130;-83
2023/12/14 13:08:40;;;;;;;12.15;2.58;;;;;;;21.46;100.00;101183.69;10563839;28;20039;-85
2023/12/14 13:14:07;;;;;;;18.73;4.35;;;;;;;21.22;100.00;101199.47;10566592;28;20044;-85
2023/12/14 13:19:30;;;;;;;13.30;2.65;;;;;;;21.26;100.00;101196.72;10580974;28;20058;-87
2023/12/14 13:24:54;;;;;;;7.93;1.80;;;;;;;21.43;100.00;101213.34;10591007;28;20579;-84
2023/12/14 13:30:19;;;;;;;5.90;1.63;;;;;;;21.56;100.00;101200.50;10587515;28;20053;-89
2023/12/14 13:35:42;;;;;;;14.80;2.00;;;;;;;21.57;100.00;101198.72;10601919;27;20446;-91
2023/12/14 13:41:07;;;;;;;10.27;2.30;;;;;;;21.57;100.00;101186.16;10581929;27;20039;-91
2023/12/14 13:46:33;;;;;;;12.50;3.28;;;;;;;21.60;100.00;101207.56;10578707;27;20597;-84
2023/12/14 13:51:58;;;;;;;9.43;2.33;;;;;;;21.45;100.00;101195.38;10495252;28;20051;-87
2023/12/14 13:57:23;;;;;;;9.85;2.03;;;;;;;21.29;100.00;101155.44;10525436;28;20047;-81
2023/12/14 14:02:47;;;;;;;15.13;2.75;;;;;;;21.08;100.00;101148.72;10531461;28;20059;-82
2023/12/14 14:08:10;;;;;;;10.43;2.97;;;;;;;20.94;100.00;101148.09;10509417;28;20047;-83
2023/12/14 14:13:33;;;;;;;12.70;2.67;;;;;;;20.86;100.00;101167.09;10514776;28;20039;-92
2023/12/14 14:18:58;;;;;;;9.95;2.65;;;;;;;20.72;100.00;101163.78;10533447;28;20052;-91
2023/12/14 14:24:21;;;;;;;11.52;3.10;;;;;;;20.67;100.00;101158.53;10531766;28;20040;-90
2023/12/14 14:29:43;;;;;;;9.82;2.67;;;;;;;20.60;100.00;101189.06;10483091;28;20044;-90
2023/12/14 14:35:13;;;;;;;11.65;3.08;;;;;;;20.43;100.00;101177.72;10511667;28;20048;-88
2023/12/14 14:40:36;;;;;;;9.10;2.40;;;;;;;20.32;100.00;101182.38;10525489;28;20040;-88
2023/12/14 14:46:00;;;;;;;12.25;2.95;;;;;;;20.23;100.00;101194.16;10520521;28;20150;-89
2023/12/14 14:51:25;;;;;;;7.00;2.47;;;;;;;20.18;100.00;101181.72;10580627;27;20042;-91
2023/12/14 14:56:47;;;;;;;4.82;1.70;;;;;;;20.12;100.00;101190.78;10587483;27;20043;-89
2023/12/14 15:02:10;;;;;;;9.65;2.47;;;;;;;20.07;100.00;101184.59;10596753;27;20063;-88
2023/12/14 15:07:37;;;;;;;8.45;2.30;;;;;;;19.98;100.00;101205.31;10592770;27;20049;-93
2023/12/14 15:13:01;;;;;;;9.35;2.65;;;;;;;19.97;100.00;101190.13;10576678;27;20050;-89
2023/12/14 15:18:24;;;;;;;8.73;2.50;;;;;;;19.87;100.00;101201.00;10583267;27;20043;-88
2023/12/14 15:23:49;;;;;;;8.63;2.13;;;;;;;19.87;100.00;101214.41;10585510;27;20416;-86
2023/12/14 15:29:14;;;;;;;9.30;2.92;;;;;;;19.86;100.00;101204.59;10583380;27;20054;-94
2023/12/14 15:34:36;;;;;;;9.90;3.05;;;;;;;19.88;100.00;101193.84;10594557;27;20119;-91
2023/12/14 15:40:00;;;;;;;8.73;2.40;;;;;;;19.87;100.00;101217.09;10574758;27;20096;-88
2023/12/14 15:45:23;;;;;;;3.63;1.52;;;;;;;19.98;100.00;101221.38;10582472;27;20489;-89
2023/12/14 15:50:47;;;;;;;9.30;2.38;;;;;;;19.92;100.00;101235.78;10584024;27;20434;-93
2023/12/14 15:56:11;;;;;;;7.88;2.10;;;;;;;19.89;100.00;101236.69;10583191;27;20058;-87
2023/12/14 16:01:36;;;;;;;3.90;1.52;;;;;;;19.79;100.00;101243.09;10590047;27;20466;-92
2023/12/14 16:07:01;;;;;;;;;;;;;;;19.99;100.00;101244.59;10581009;27;20088;-92
2023/12/14 16:12:27;;;;;;;6.57;2.05;;;;;;;19.83;100.00;101258.22;10568918;27;20528;-93
2023/12/14 16:17:50;;;;;;;7.90;4.28;;;;;;;19.86;100.00;101249.25;10580676;27;20564;-90
2023/12/14 16:23:12;;;;;;;11.70;2.58;;;;;;;19.88;100.00;101259.06;10576111;27;20055;-95
2023/12/14 16:28:36;;;;;;;12.35;6.28;;;;;;;19.77;100.00;101274.38;10595699;27;20046;-83
2023/12/14 16:34:00;;;;;;;8.10;2.33;;;;;;;19.76;100.00;101259.22;10589570;27;20040;-89
2023/12/14 16:39:24;;;;;;;9.18;3.60;;;;;;;19.78;100.00;101268.13;10574979;28;20139;-83
2023/12/14 16:45:02;;;;;;;9.20;3.03;;;;;;;19.74;100.00;101274.44;10569432;27;20560;-85
2023/12/14 16:50:25;;;;;;;7.50;3.63;;;;;;;19.70;100.00;101266.44;10601187;27;20047;-82
2023/12/14 16:55:50;;;;;;;10.43;2.63;;;;;;;19.60;100.00;101273.75;10579605;27;20035;-77
2023/12/14 17:01:14;;;;;;;9.25;3.17;;;;;;;19.61;100.00;101269.28;10578387;28;20047;-79
2023/12/14 17:06:36;;;;;;;9.60;2.83;;;;;;;19.64;100.00;101274.56;10594575;28;20088;-82
2023/12/14 17:11:59;;;;;;;6.85;2.42;;;;;;;19.52;100.00;101289.03;10609920;28;20050;-85
2023/12/14 17:17:26;;;;;;;8.88;2.13;;;;;;;19.54;100.00;101300.59;10587860;28;20048;-84
2023/12/14 17:22:49;;;;;;;12.68;1.75;;;;;;;19.61;100.00;101310.34;10574377;28;20092;-82
2023/12/14 17:28:13;;;;;;;11.32;2.80;;;;;;;19.62;100.00;101309.44;10587814;27;20043;-82
2023/12/14 17:33:40;;;;;;;9.77;2.53;;;;;;;19.65;100.00;101309.38;10592565;27;20042;-86
2023/12/14 17:39:08;;;;;;;4.25;1.40;;;;;;;19.71;100.00;101314.66;10585000;27;20035;-83
2023/12/14 17:44:34;;;;;;;;;;;;;;;19.84;100.00;101327.00;10586949;27;20043;-82
2023/12/14 17:50:03;;;;;;;4.68;1.25;;;;;;;19.76;100.00;101333.34;10570647;27;19962;-80
2023/12/14 17:55:27;;;;;;;4.20;1.35;;;;;;;19.76;100.00;101338.72;10616520;27;20072;-86
2023/12/14 18:00:59;;;;;;;4.32;1.45;;;;;;;19.75;100.00;101337.84;10609019;27;20115;-84
2023/12/14 18:06:26;;;;;;;6.00;1.63;;;;;;;19.70;100.00;101347.72;10604604;27;20059;-81
2023/12/14 18:11:49;;;;;;;12.45;5.28;;;;;;;19.61;100.00;101344.28;10596156;27;20043;-84
2023/12/14 18:17:11;;;;;;;11.88;5.57;;;;;;;19.59;100.00;101330.00;10587311;27;20047;-81
2023/12/14 18:22:35;;;;;;;4.97;2.05;;;;;;;19.69;100.00;101337.91;10566623;27;20043;-80
2023/12/14 18:28:01;;;;;;;14.80;5.53;;;;;;;19.54;100.00;101335.44;10600733;27;20066;-80
2023/12/14 18:33:24;;;;;;;6.07;2.50;;;;;;;19.48;100.00;101340.84;10607563;27;20054;-81
2023/12/14 18:38:48;;;;;;;8.82;4.68;;;;;;;19.50;100.00;101355.09;10605727;27;20054;-79
2023/12/14 18:44:10;;;;;;;6.20;1.88;;;;;;;19.47;100.00;101364.06;10582046;27;20051;-79
2023/12/14 18:49:34;;;;;;;6.45;1.83;;;;;;;19.44;100.00;101364.06;10581131;27;20074;-83
2023/12/14 18:54:58;;;;;;;10.07;2.85;;;;;;;19.36;100.00;101373.97;10588132;27;20042;-84
2023/12/14 19:00:23;;;;;;;4.97;1.50;;;;;;;19.36;100.00;101360.56;10584795;27;20058;-83
2023/12/14 19:11:27;;;;;;;14.02;2.58;;;;;;;19.34;100.00;101357.03;10589012;27;20031;-87
2023/12/14 19:16:51;;;;;;;8.48;2.25;;;;;;;19.36;100.00;101357.03;10591351;27;20050;-87
2023/12/14 19:22:14;;;;;;;8.50;1.60;;;;;;;19.38;100.00;101340.03;10603568;27;20051;-88
2023/12/14 19:27:40;;;;;;;6.68;1.60;;;;;;;19.55;100.00;101339.88;10594860;27;20154;-81
2023/12/14 19:33:02;;;;;;;8.88;2.75;;;;;;;19.57;100.00;101332.69;10587745;27;20088;-80
2023/12/14 19:38:25;;;;;;;5.47;1.58;;;;;;;19.43;100.00;101323.91;10592372;27;20057;-84
2023/12/14 19:43:49;;;;;;;8.90;2.65;;;;;;;19.42;100.00;101309.66;10591656;27;20070;-79
2023/12/14 19:49:11;;;;;;;10.30;2.42;;;;;;;19.49;100.00;101326.56;10599667;27;20492;-84
2023/12/14 19:54:34;;;;;;;3.55;1.60;;;;;;;19.58;100.00;101323.75;10596743;27;20055;-82
2023/12/14 19:59:58;;;;;;;11.48;1.60;;;;;;;19.62;100.00;101338.03;10588495;27;20047;-86
2023/12/14 20:05:21;;;;;;;9.07;1.63;;;;;;;19.55;100.00;101331.84;10595549;27;20112;-89
2023/12/14 20:16:30;;;;;;;8.05;2.78;;;;;;;19.50;100.00;101336.34;10580326;27;20046;-87
2023/12/14 20:21:54;;;;;;;6.57;1.60;;;;;;;19.52;100.00;101334.56;10601794;27;20053;-85
2023/12/14 20:27:17;;;;;;;10.77;2.30;;;;;;;19.48;100.00;101327.47;10592046;27;20047;-84
2023/12/14 20:32:42;;;;;;;8.45;1.88;;;;;;;19.55;100.00;101326.50;10588893;27;20039;-84
2023/12/14 20:38:07;;;;;;;8.55;2.20;;;;;;;19.57;100.00;101321.09;10583551;27;20061;-86
2023/12/14 20:43:29;;;;;;;6.88;1.75;;;;;;;19.66;100.00;101307.59;10590408;27;20485;-88
2023/12/14 20:48:54;;;;;;;6.65;2.08;;;;;;;19.61;100.00;101291.59;10581231;27;20520;-86
2023/12/14 20:54:17;;;;;;;9.32;2.20;;;;;;;19.53;100.00;101280.09;10568796;27;20125;-84
2023/12/14 20:59:39;;;;;;;7.43;1.80;;;;;;;19.60;100.00;101276.41;10583232;27;20074;-86
2023/12/14 21:05:04;;;;;;;6.25;2.40;;;;;;;19.55;100.00;101283.63;10570101;28;20051;-84
2023/12/14 21:10:27;;;;;;;8.02;2.55;;;;;;;19.50;100.00;101296.19;10561543;28;20054;-85
2023/12/14 21:15:50;;;;;;;10.80;2.53;;;;;;;19.41;100.00;101298.94;10575299;28;20043;-84
2023/12/14 21:21:17;;;;;;;11.35;2.55;;;;;;;19.35;100.00;101305.28;10574563;27;20052;-85
2023/12/14 21:26:46;;;;;;;8.18;3.08;;;;;;;19.33;100.00;101339.19;10584054;27;20059;-84
2023/12/14 21:32:09;;;;;;;9.43;2.80;;;;;;;19.31;100.00;101318.69;10613336;27;20055;-84
2023/12/14 21:37:33;;;;;;;9.20;2.15;;;;;;;19.38;100.00;101315.94;10600288;27;20043;-84
2023/12/14 21:42:56;;;;;;;10.07;3.20;;;;;;;19.41;100.00;101325.72;10595717;27;20044;-84
2023/12/14 21:48:18;;;;;;;12.70;3.30;;;;;;;19.35;100.00;101312.41;10570671;27;20556;-85
2023/12/14 21:53:42;;;;;;;8.57;2.60;;;;;;;19.30;100.00;101333.88;10590674;27;20047;-83
2023/12/14 21:59:09;;;;;;;9.03;2.83;;;;;;;19.23;100.00;101320.59;10565206;27;20091;-84
2023/12/14 22:04:32;;;;;;;7.75;3.15;;;;;;;19.21;100.00;101333.09;10608370;27;20288;-83
2023/12/14 22:09:58;;;;;;;8.10;2.58;;;;;;;19.24;100.00;101341.06;10591393;27;20130;-84
2023/12/14 22:15:20;;;;;;;10.50;3.33;;;;;;;19.21;100.00;101333.97;10601652;27;20102;-83
2023/12/14 22:20:43;;;;;;;10.80;2.67;;;;;;;19.29;100.00;101332.13;10552836;28;20544;-83
2023/12/14 22:26:07;;;;;;;12.70;2.83;;;;;;;19.28;100.00;101330.34;10572339;27;20058;-82
2023/12/14 22:31:31;;;;;;;7.05;2.42;;;;;;;19.31;100.00;101324.94;10609590;27;20505;-83
2023/12/14 22:36:53;;;;;;;9.82;3.53;;;;;;;19.36;100.00;101306.16;10609244;27;20047;-83
2023/12/14 22:42:17;;;;;;;7.85;2.80;;;;;;;19.37;100.00;101306.13;10608787;27;20047;-83
2023/12/14 22:47:39;;;;;;;11.35;2.80;;;;;;;19.43;100.00;101281.94;10608847;27;20450;-84
2023/12/14 22:53:02;;;;;;;7.85;2.35;;;;;;;19.40;100.00;101282.00;10608504;27;20043;-84
2023/12/14 22:58:26;;;;;;;8.85;2.75;;;;;;;19.37;100.00;101265.06;10607560;27;20568;-84
2023/12/14 23:03:48;;;;;;;11.63;3.28;;;;;;;19.35;100.00;101253.50;10584212;27;20040;-83
2023/12/14 23:09:12;;;;;;;15.38;3.28;;;;;;;19.40;100.00;101244.50;10601064;27;20050;-85
2023/12/14 23:14:37;;;;;;;8.65;3.05;;;;;;;19.40;100.00;101240.94;10588802;27;20051;-83
2023/12/14 23:20:01;;;;;;;7.53;2.70;;;;;;;19.41;100.00;101227.53;10592164;27;20066;-83
2023/12/14 23:25:24;;;;;;;7.65;2.92;;;;;;;19.43;100.00;101203.38;10572188;27;20043;-85
2023/12/14 23:30:55;;;;;;;9.68;2.92;;;;;;;19.47;100.00;101224.81;10592050;27;20336;-84
2023/12/14 23:36:19;;;;;;;9.90;2.65;;;;;;;19.49;100.00;101220.28;10554562;27;20051;-84
2023/12/14 23:41:42;;;;;;;8.15;2.65;;;;;;;19.53;100.00;101185.44;10583925;27;20507;-84
2023/12/14 23:47:11;;;;;;;11.88;2.95;;;;;;;19.46;100.00;101192.69;10573288;27;20555;-85
2023/12/14 23:52:34;;;;;;;11.10;2.97;;;;;;;19.44;100.00;101202.50;10585374;27;20080;-85
2023/12/14 23:58:02;;;;;;;15.63;3.60;;;;;;;19.43;100.00;101196.25;10569728;27;20127;-84
